Time;durP1;ratioP1;P1;durP2;ratioP2;P2;SDS_P1;SDS_P2;PMS_P1;PMS_P2;Temp;Humidity;BMP_temperature;BMP_pressure;BME280_temperature;BME280_humidity;BME280_pressure;Samples;Min_cycle;Max_cycle;Signal;HPM_P1;HPM_P2
2022/12/12 00:01:31;;;;;;;23.00;15.27;;;-4.70;99.90;;;;;;5051431;28;20037;-54
2022/12/12 00:03:57;;;;;;;23.33;15.63;;;-4.60;99.90;;;;;;5050175;28;20612;-54
2022/12/12 00:06:23;;;;;;;21.33;15.85;;;-4.60;99.90;;;;;;5051406;28;20044;-55
2022/12/12 00:08:50;;;;;;;26.52;17.13;;;-4.60;99.90;;;;;;5051531;28;20376;-53
2022/12/12 00:11:15;;;;;;;24.85;17.13;;;-4.50;99.90;;;;;;5050774;28;20403;-55
2022/12/12 00:13:41;;;;;;;20.65;14.75;;;-4.50;99.90;;;;;;5050564;28;20111;-55
2022/12/12 00:16:08;;;;;;;19.98;14.20;;;-4.50;99.90;;;;;;5051081;28;20376;-53
2022/12/12 00:18:35;;;;;;;21.92;14.98;;;-4.60;99.90;;;;;;5051348;28;20041;-55
2022/12/12 00:21:02;;;;;;;19.23;13.77;;;-4.70;99.90;;;;;;5051002;28;20021;-55
2022/12/12 00:23:28;;;;;;;21.85;15.15;;;-4.80;99.90;;;;;;5051312;28;20035;-53
2022/12/12 00:25:57;;;;;;;22.23;14.27;;;-4.90;99.90;;;;;;5051144;28;20074;-54
2022/12/12 00:28:26;;;;;;;22.77;15.55;;;-5.00;99.90;;;;;;5049936;28;20513;-51
2022/12/12 00:30:51;;;;;;;23.33;15.32;;;-5.10;99.90;;;;;;5051177;28;20036;-53
2022/12/12 00:33:18;;;;;;;23.25;14.82;;;-5.10;99.90;;;;;;5050972;28;20021;-51
2022/12/12 00:35:43;;;;;;;23.08;14.95;;;-5.20;99.90;;;;;;5049589;28;20025;-50
2022/12/12 00:38:10;;;;;;;28.15;16.05;;;-5.30;99.90;;;;;;5050952;28;20471;-53
2022/12/12 00:40:35;;;;;;;24.05;14.07;;;-5.50;99.90;;;;;;5051057;28;20112;-52
2022/12/12 00:43:02;;;;;;;21.90;15.02;;;-5.60;99.90;;;;;;5049779;28;20684;-54
2022/12/12 00:45:27;;;;;;;23.02;15.52;;;-5.60;99.90;;;;;;5050799;28;20025;-51
2022/12/12 00:47:53;;;;;;;24.02;15.35;;;-5.80;99.90;;;;;;5050875;28;20125;-54
2022/12/12 00:50:18;;;;;;;22.15;14.77;;;-5.90;99.90;;;;;;5050691;28;20440;-51
2022/12/12 00:52:44;;;;;;;21.40;14.25;;;-5.90;99.90;;;;;;5050723;28;20497;-51
2022/12/12 00:55:13;;;;;;;29.48;14.75;;;-5.90;99.90;;;;;;5050594;28;20123;-54
2022/12/12 00:57:39;;;;;;;21.08;13.88;;;-5.90;99.90;;;;;;5050805;28;20020;-52
2022/12/12 01:00:08;;;;;;;17.45;12.48;;;-5.80;99.90;;;;;;5050514;28;20414;-50
2022/12/12 01:02:34;;;;;;;20.25;13.63;;;-5.80;99.90;;;;;;5050393;28;20021;-50
2022/12/12 01:05:00;;;;;;;19.80;13.30;;;-5.80;99.90;;;;;;5050569;28;20032;-52
2022/12/12 01:07:25;;;;;;;19.05;13.40;;;-5.60;99.90;;;;;;5049308;28;20122;-54
2022/12/12 01:09:51;;;;;;;21.73;13.85;;;-5.40;99.90;;;;;;5049222;28;20029;-51
2022/12/12 01:12:17;;;;;;;20.15;13.77;;;-5.30;99.90;;;;;;5050347;28;20060;-54
2022/12/12 01:14:48;;;;;;;22.95;14.13;;;-5.20;99.90;;;;;;5049009;28;20036;-52
2022/12/12 01:17:14;;;;;;;17.75;12.27;;;-5.00;99.90;;;;;;5050114;28;20063;-53
2022/12/12 01:19:40;;;;;;;20.70;13.20;;;-4.80;99.90;;;;;;5050329;28;20109;-53
2022/12/12 01:22:05;;;;;;;19.40;13.45;;;-4.50;99.90;;;;;;5050093;28;20035;-50
2022/12/12 01:24:31;;;;;;;16.45;12.20;;;-4.30;99.90;;;;;;5050498;28;20050;-54
2022/12/12 01:26:57;;;;;;;18.80;12.02;;;-4.10;99.90;;;;;;5050055;28;20037;-49
2022/12/12 01:29:22;;;;;;;22.20;14.40;;;-3.90;99.90;;;;;;5050127;28;20036;-54
2022/12/12 01:31:48;;;;;;;22.65;13.82;;;-3.80;99.90;;;;;;5050104;28;20032;-54
2022/12/12 01:34:14;;;;;;;24.33;14.57;;;-3.60;99.90;;;;;;5048631;28;20035;-51
2022/12/12 01:36:39;;;;;;;23.95;14.77;;;-3.60;99.90;;;;;;5050217;28;20025;-51
2022/12/12 01:39:05;;;;;;;20.83;14.25;;;-3.50;99.90;;;;;;5050045;28;20029;-49
2022/12/12 01:41:31;;;;;;;20.33;14.23;;;-3.40;99.90;;;;;;5050020;28;20029;-54
2022/12/12 01:44:01;;;;;;;20.55;12.27;;;-3.40;99.90;;;;;;5049900;28;20036;-52
2022/12/12 01:46:39;;;;;;;21.70;14.13;;;-3.40;99.90;;;;;;5049927;28;20017;-54
2022/12/12 01:49:14;;;;;;;18.25;13.00;;;-3.40;99.90;;;;;;5050015;28;20050;-51
2022/12/12 01:51:41;;;;;;;19.40;12.93;;;-3.30;99.90;;;;;;5049774;28;20033;-49
2022/12/12 01:54:18;;;;;;;21.92;13.05;;;-3.30;99.90;;;;;;5049368;28;20029;-50
2022/12/12 01:56:46;;;;;;;19.88;13.20;;;-3.40;99.90;;;;;;5049676;28;20021;-52
2022/12/12 01:59:15;;;;;;;25.65;15.50;;;-3.40;99.90;;;;;;5049694;28;20037;-51
2022/12/12 02:01:40;;;;;;;19.45;13.55;;;-3.50;99.90;;;;;;5049667;28;20091;-53
2022/12/12 02:04:08;;;;;;;19.70;12.25;;;-3.60;99.90;;;;;;5049628;28;20033;-50
2022/12/12 02:06:34;;;;;;;18.15;12.30;;;-3.50;99.90;;;;;;5048451;28;20025;-49
2022/12/12 02:09:04;;;;;;;17.02;11.38;;;-3.50;99.90;;;;;;5049317;28;20077;-54
2022/12/12 02:11:31;;;;;;;17.05;10.82;;;-3.50;99.90;;;;;;5049309;28;20444;-50
2022/12/12 02:14:00;;;;;;;19.83;11.32;;;-3.50;99.90;;;;;;5049556;28;20733;-51
2022/12/12 02:16:42;;;;;;;16.92;10.55;;;-3.60;99.90;;;;;;5048306;28;20428;-51
2022/12/12 02:19:20;;;;;;;24.27;13.48;;;-3.60;99.90;;;;;;5049421;28;20040;-50
2022/12/12 02:22:19;;;;;;;23.33;11.70;;;-3.70;99.90;;;;;;5049298;28;20029;-51
2022/12/12 02:25:21;;;;;;;16.48;11.27;;;-3.70;99.90;;;;;;5025572;28;20553;-51
2022/12/12 02:27:56;;;;;;;15.70;11.63;;;-3.60;99.90;;;;;;5049269;28;20029;-51
2022/12/12 02:30:30;;;;;;;19.00;12.50;;;-3.60;99.90;;;;;;5049325;28;20104;-51
2022/12/12 02:33:17;;;;;;;17.10;12.77;;;-3.70;99.90;;;;;;5049287;28;20032;-55
2022/12/12 02:36:07;;;;;;;27.00;17.05;;;-3.70;99.90;;;;;;5049160;28;20384;-52
2022/12/12 02:39:04;;;;;;;27.85;16.83;;;-3.70;99.90;;;;;;5049104;28;20082;-51
2022/12/12 02:41:49;;;;;;;25.98;17.65;;;-3.80;99.90;;;;;;5027788;28;20041;-53
2022/12/12 02:44:48;;;;;;;30.33;19.35;;;-3.80;99.90;;;;;;5048354;28;20036;-49
2022/12/12 02:47:39;;;;;;;25.42;17.33;;;-3.80;99.90;;;;;;5048020;28;20052;-54
2022/12/12 02:50:17;;;;;;;26.33;18.83;;;-3.70;99.90;;;;;;5048000;28;20017;-49
2022/12/12 02:52:45;;;;;;;27.85;19.08;;;-3.60;99.90;;;;;;5048026;28;20028;-53
2022/12/12 02:55:11;;;;;;;35.83;22.20;;;-3.60;99.90;;;;;;5047865;28;20033;-54
2022/12/12 02:57:40;;;;;;;33.67;20.58;;;-3.60;99.90;;;;;;5048659;28;20544;-49
2022/12/12 03:00:14;;;;;;;32.13;17.13;;;-3.60;99.90;;;;;;5047439;28;20501;-53
2022/12/12 03:02:43;;;;;;;28.88;18.48;;;-3.60;99.90;;;;;;5048814;28;20059;-50
2022/12/12 03:08:43;;;;;;;29.95;19.77;;;-3.60;99.90;;;;;;5048498;28;20035;-51
2022/12/12 03:11:17;;;;;;;30.23;18.90;;;-3.60;99.90;;;;;;5048362;28;20429;-50
2022/12/12 03:13:42;;;;;;;30.35;20.83;;;-3.60;99.90;;;;;;5047397;28;20028;-55
2022/12/12 03:16:30;;;;;;;28.67;18.98;;;-3.60;99.90;;;;;;5048494;28;20344;-55
2022/12/12 03:19:28;;;;;;;28.25;16.17;;;-3.50;99.90;;;;;;5048690;28;20052;-53
2022/12/12 03:22:13;;;;;;;24.02;13.65;;;-3.40;99.90;;;;;;5048475;28;20373;-53
2022/12/12 03:25:01;;;;;;;31.38;15.30;;;-3.40;99.90;;;;;;5048562;28;20132;-54
2022/12/12 03:27:31;;;;;;;28.35;16.67;;;-3.40;99.90;;;;;;5048571;28;20017;-53
2022/12/12 03:30:03;;;;;;;17.48;14.25;;;-3.40;99.90;;;;;;5048309;28;20025;-55
2022/12/12 03:32:35;;;;;;;13.73;9.38;;;-3.40;99.90;;;;;;5048505;28;20029;-51
2022/12/12 03:35:17;;;;;;;17.50;11.85;;;-3.40;99.90;;;;;;5048341;28;20033;-54
2022/12/12 03:37:52;;;;;;;19.00;12.05;;;-3.40;99.90;;;;;;5048413;28;20137;-53
2022/12/12 03:40:35;;;;;;;21.30;14.00;;;-3.40;99.90;;;;;;5048251;28;20029;-52
2022/12/12 03:43:07;;;;;;;19.98;16.83;;;-3.50;99.90;;;;;;5047968;28;20035;-55
2022/12/12 03:45:45;;;;;;;20.60;14.40;;;-3.50;99.90;;;;;;5048260;28;20112;-54
2022/12/12 03:48:32;;;;;;;31.58;15.70;;;-3.50;99.90;;;;;;5048042;28;20033;-55
2022/12/12 03:51:06;;;;;;;26.85;18.23;;;-3.60;99.90;;;;;;5048056;28;20021;-53
2022/12/12 03:53:42;;;;;;;27.60;17.35;;;-3.60;99.90;;;;;;5048100;28;20472;-56
2022/12/12 03:56:26;;;;;;;24.55;15.73;;;-3.60;99.90;;;;;;5048118;28;20126;-55
2022/12/12 03:59:05;;;;;;;28.52;17.50;;;-3.40;99.90;;;;;;5048262;28;20025;-51
2022/12/12 04:01:40;;;;;;;27.70;18.92;;;-3.40;99.90;;;;;;5048006;28;20576;-56
2022/12/12 04:04:16;;;;;;;33.65;20.58;;;-3.50;99.90;;;;;;5047964;28;20026;-56
2022/12/12 04:06:50;;;;;;;29.48;19.38;;;-3.60;99.90;;;;;;5048121;28;20015;-52
2022/12/12 04:15:02;;;;;;;29.17;18.70;;;-3.50;99.90;;;;;;5047693;28;20039;-52
2022/12/12 04:17:52;;;;;;;28.25;19.08;;;-3.60;99.90;;;;;;5048841;28;20025;-51
2022/12/12 04:24:16;;;;;;;28.80;17.73;;;-3.60;99.90;;;;;;5048254;28;20044;-52
2022/12/12 04:26:52;;;;;;;24.17;16.58;;;-3.50;99.90;;;;;;5051266;28;20416;-52
2022/12/12 04:29:18;;;;;;;25.38;18.30;;;-3.50;99.90;;;;;;5051046;28;20040;-55
2022/12/12 04:32:01;;;;;;;33.95;18.95;;;-3.60;99.90;;;;;;5051142;28;20033;-54
2022/12/12 04:34:43;;;;;;;28.63;19.30;;;-3.70;99.90;;;;;;5051161;28;20495;-54
2022/12/12 04:37:14;;;;;;;26.50;17.58;;;-3.70;99.90;;;;;;5050843;28;20029;-55
2022/12/12 04:39:41;;;;;;;26.63;17.45;;;-3.80;99.90;;;;;;5050945;28;20029;-53
2022/12/12 04:42:12;;;;;;;24.35;16.15;;;-3.80;99.90;;;;;;5050430;28;20509;-51
2022/12/12 04:44:46;;;;;;;25.63;15.93;;;-3.70;99.90;;;;;;5050815;28;20025;-52
2022/12/12 04:47:14;;;;;;;29.05;16.70;;;-3.60;99.90;;;;;;5050036;28;20028;-53
2022/12/12 04:49:42;;;;;;;23.10;17.02;;;-3.50;99.90;;;;;;5050823;28;20068;-52
2022/12/12 04:52:12;;;;;;;25.92;16.92;;;-3.50;99.90;;;;;;5050837;28;20025;-51
2022/12/12 04:54:44;;;;;;;23.77;15.35;;;-3.50;99.90;;;;;;5050795;28;20109;-51
2022/12/12 04:57:16;;;;;;;24.20;16.08;;;-3.30;99.90;;;;;;5050609;28;20421;-53
2022/12/12 04:59:42;;;;;;;25.73;17.63;;;-3.30;99.90;;;;;;5049540;28;20033;-51
2022/12/12 05:02:28;;;;;;;23.73;15.30;;;-3.20;99.90;;;;;;5050164;28;20037;-54
2022/12/12 05:04:57;;;;;;;25.90;15.63;;;-3.20;99.90;;;;;;5050564;28;20083;-54
2022/12/12 05:07:37;;;;;;;26.42;17.98;;;-3.10;99.90;;;;;;5049466;28;20408;-54
2022/12/12 05:10:06;;;;;;;25.50;17.45;;;-3.20;99.90;;;;;;5049573;28;20146;-54
2022/12/12 05:12:48;;;;;;;26.70;16.33;;;-3.10;99.90;;;;;;5048904;28;20084;-55
2022/12/12 05:15:16;;;;;;;27.45;16.50;;;-3.00;99.90;;;;;;5047684;28;20021;-55
2022/12/12 05:17:45;;;;;;;23.77;16.75;;;-3.00;99.90;;;;;;5049073;28;20025;-54
2022/12/12 05:20:12;;;;;;;32.08;19.23;;;-3.00;99.90;;;;;;5050217;28;20038;-54
2022/12/12 05:22:38;;;;;;;27.80;17.85;;;-3.00;99.90;;;;;;5049710;28;20025;-52
2022/12/12 05:25:04;;;;;;;28.52;17.35;;;-3.00;99.90;;;;;;5049685;28;20056;-54
2022/12/12 05:27:29;;;;;;;27.83;18.20;;;-3.00;99.90;;;;;;5048458;28;20052;-53
2022/12/12 05:29:55;;;;;;;31.95;18.92;;;-3.00;99.90;;;;;;5048995;28;20129;-53
2022/12/12 05:32:21;;;;;;;30.30;18.38;;;-3.00;99.90;;;;;;5049972;28;20356;-53
2022/12/12 05:34:46;;;;;;;30.35;18.77;;;-3.00;99.90;;;;;;5048743;28;20037;-53
2022/12/12 05:37:12;;;;;;;33.30;20.50;;;-2.90;99.90;;;;;;5049919;28;20025;-52
2022/12/12 05:39:37;;;;;;;35.15;20.30;;;-2.90;99.90;;;;;;5049870;28;20033;-54
2022/12/12 05:42:03;;;;;;;35.65;21.02;;;-2.90;99.90;;;;;;5049967;28;20017;-52
2022/12/12 05:44:29;;;;;;;28.70;19.77;;;-2.90;99.90;;;;;;5049960;28;20044;-55
2022/12/12 05:46:54;;;;;;;32.40;20.88;;;-2.90;99.90;;;;;;5047529;28;20375;-52
2022/12/12 05:49:20;;;;;;;35.95;21.50;;;-3.00;99.90;;;;;;5048395;28;20025;-53
2022/12/12 05:51:46;;;;;;;26.38;18.20;;;-3.10;99.90;;;;;;5048556;28;20025;-51
2022/12/12 05:54:12;;;;;;;26.20;16.08;;;-3.10;99.90;;;;;;5047117;28;20021;-51
2022/12/12 05:56:38;;;;;;;22.50;14.57;;;-3.10;99.90;;;;;;5048664;28;20479;-51
2022/12/12 05:59:03;;;;;;;15.52;10.85;;;-3.10;99.90;;;;;;5048245;28;20116;-50
2022/12/12 06:01:30;;;;;;;22.55;14.13;;;-3.30;99.90;;;;;;5048558;28;20033;-51
2022/12/12 06:03:55;;;;;;;16.00;11.27;;;-3.20;99.90;;;;;;5048279;28;20032;-56
2022/12/12 06:06:21;;;;;;;21.25;14.43;;;-3.30;99.90;;;;;;5048627;28;20022;-51
2022/12/12 06:08:46;;;;;;;16.02;10.90;;;-3.30;99.90;;;;;;5048285;28;20046;-54
2022/12/12 06:11:12;;;;;;;10.75;8.70;;;-3.30;99.90;;;;;;5048168;28;20045;-53
2022/12/12 06:13:38;;;;;;;14.48;9.73;;;-3.30;99.90;;;;;;5047093;28;20021;-53
2022/12/12 06:16:14;;;;;;;15.27;10.57;;;-3.30;99.90;;;;;;5047972;28;20025;-53
2022/12/12 06:18:39;;;;;;;13.73;9.23;;;-3.40;99.90;;;;;;5048493;28;20017;-53
2022/12/12 06:21:10;;;;;;;12.63;10.30;;;-3.40;99.90;;;;;;5047964;28;20021;-51
2022/12/12 06:23:37;;;;;;;15.15;11.00;;;-3.30;99.90;;;;;;5048297;28;20014;-51
2022/12/12 06:26:04;;;;;;;25.48;19.00;;;-3.30;99.90;;;;;;5048093;28;20567;-50
2022/12/12 06:28:30;;;;;;;15.00;11.00;;;-3.30;99.90;;;;;;5048181;28;20029;-53
2022/12/12 06:30:56;;;;;;;17.23;11.00;;;-3.20;99.90;;;;;;5048009;28;20023;-52
2022/12/12 06:33:21;;;;;;;17.45;11.45;;;-3.20;99.90;;;;;;5048080;28;20040;-52
2022/12/12 06:36:07;;;;;;;16.20;10.35;;;-3.20;99.90;;;;;;5048208;28;20025;-51
2022/12/12 06:38:34;;;;;;;15.13;9.68;;;-3.20;99.90;;;;;;5048345;28;20032;-50
2022/12/12 06:41:03;;;;;;;20.17;13.15;;;-3.20;99.90;;;;;;5046509;28;20021;-53
2022/12/12 06:43:29;;;;;;;24.05;14.90;;;-3.30;99.90;;;;;;5048094;28;20041;-50
2022/12/12 06:46:04;;;;;;;18.52;11.40;;;-3.30;99.90;;;;;;5047845;28;20032;-51
2022/12/12 06:48:31;;;;;;;22.90;13.23;;;-3.30;99.90;;;;;;5047834;28;20058;-52
2022/12/12 06:50:57;;;;;;;23.27;15.27;;;-3.30;99.90;;;;;;5047911;28;20025;-51
2022/12/12 06:53:23;;;;;;;16.90;10.27;;;-3.30;99.90;;;;;;5047654;28;20104;-52
2022/12/12 06:55:49;;;;;;;14.25;9.57;;;-3.30;99.90;;;;;;5047934;28;20190;-54
2022/12/12 06:58:14;;;;;;;17.60;10.50;;;-3.30;99.90;;;;;;5046331;28;20094;-52
2022/12/12 07:00:40;;;;;;;15.90;11.60;;;-3.20;99.90;;;;;;5047610;28;20031;-51
2022/12/12 07:03:06;;;;;;;14.90;11.10;;;-3.10;99.90;;;;;;5047336;28;20036;-55
2022/12/12 07:05:32;;;;;;;18.98;9.93;;;-3.20;99.90;;;;;;5046553;28;20025;-51
2022/12/12 07:08:01;;;;;;;76.63;26.88;;;-3.20;99.90;;;;;;5047343;28;20022;-52
2022/12/12 07:10:28;;;;;;;66.03;23.98;;;-3.20;99.90;;;;;;5047643;28;20017;-50
2022/12/12 07:12:54;;;;;;;68.25;25.65;;;-3.10;99.90;;;;;;5047266;28;20587;-52
2022/12/12 07:15:19;;;;;;;55.42;23.00;;;-3.20;99.90;;;;;;5047413;28;20029;-54
2022/12/12 07:17:45;;;;;;;124.40;44.45;;;-3.10;99.90;;;;;;5047226;28;20025;-52
2022/12/12 07:20:11;;;;;;;72.90;30.13;;;-3.10;99.90;;;;;;5047417;28;20021;-51
2022/12/12 07:22:36;;;;;;;48.70;21.25;;;-3.20;99.90;;;;;;5046220;28;20025;-52
2022/12/12 07:25:03;;;;;;;71.43;26.58;;;-3.20;99.90;;;;;;5047253;28;20025;-53
2022/12/12 07:27:28;;;;;;;119.55;43.47;;;-3.20;99.90;;;;;;5047353;28;20100;-52
2022/12/12 07:29:54;;;;;;;24.25;16.35;;;-3.20;99.90;;;;;;5047375;28;20104;-54
2022/12/12 07:32:19;;;;;;;128.15;47.50;;;-3.20;99.90;;;;;;5047016;28;20033;-52
2022/12/12 07:34:45;;;;;;;23.45;16.27;;;-3.20;99.90;;;;;;5046112;28;20032;-52
2022/12/12 07:37:11;;;;;;;155.45;54.15;;;-3.10;99.90;;;;;;5045651;28;20480;-53
2022/12/12 07:39:36;;;;;;;66.43;32.40;;;-3.10;99.90;;;;;;5047511;28;20036;-52
2022/12/12 07:42:02;;;;;;;107.38;45.88;;;-3.00;99.90;;;;;;5046949;28;20036;-53
2022/12/12 07:44:28;;;;;;;28.17;17.95;;;-3.00;99.90;;;;;;5047280;28;20022;-50
2022/12/12 07:46:56;;;;;;;53.90;26.20;;;-2.90;99.90;;;;;;5046835;28;20042;-53
2022/12/12 07:49:22;;;;;;;41.42;21.40;;;-2.90;99.90;;;;;;5047221;28;20045;-52
2022/12/12 07:51:47;;;;;;;41.55;22.20;;;-2.80;99.90;;;;;;5046831;28;20065;-52
2022/12/12 07:54:13;;;;;;;105.90;47.80;;;-2.70;99.90;;;;;;5050508;28;20074;-52
2022/12/12 07:56:39;;;;;;;26.42;18.00;;;-2.70;99.90;;;;;;5050463;28;20098;-52
2022/12/12 07:59:04;;;;;;;44.58;24.98;;;-2.70;99.90;;;;;;5050307;28;20146;-51
2022/12/12 08:01:30;;;;;;;25.55;15.82;;;-2.70;99.90;;;;;;5050168;28;20040;-49
2022/12/12 08:03:55;;;;;;;26.75;16.83;;;-2.70;99.90;;;;;;5050417;28;20017;-49
2022/12/12 08:06:22;;;;;;;28.65;17.63;;;-2.70;99.90;;;;;;5050230;28;20037;-52
2022/12/12 08:08:49;;;;;;;35.85;21.38;;;-2.70;99.90;;;;;;5050318;28;20108;-54
2022/12/12 08:11:18;;;;;;;24.05;15.75;;;-2.80;99.90;;;;;;5050145;28;20240;-51
2022/12/12 08:13:43;;;;;;;26.63;17.15;;;-2.70;99.90;;;;;;5050132;28;20071;-52
2022/12/12 08:16:18;;;;;;;21.60;14.80;;;-2.60;99.90;;;;;;5050078;28;20492;-50
2022/12/12 08:18:45;;;;;;;38.75;18.88;;;-2.30;99.90;;;;;;5050463;28;20043;-52
2022/12/12 08:21:11;;;;;;;26.00;16.02;;;-2.20;99.90;;;;;;5049788;28;20081;-51
2022/12/12 08:23:38;;;;;;;25.38;15.20;;;-2.20;99.90;;;;;;5050321;28;20056;-52
2022/12/12 08:26:08;;;;;;;26.08;15.82;;;-2.10;99.90;;;;;;5049896;28;20043;-50
2022/12/12 08:28:35;;;;;;;21.17;14.77;;;-2.20;99.90;;;;;;5050036;28;20384;-55
2022/12/12 08:31:01;;;;;;;23.23;14.73;;;-1.90;99.90;;;;;;5049732;28;20021;-50
2022/12/12 08:33:27;;;;;;;21.52;14.27;;;-1.70;99.90;;;;;;5050242;28;20089;-52
2022/12/12 08:35:52;;;;;;;21.60;13.82;;;-1.70;99.90;;;;;;5049951;28;20127;-50
2022/12/12 08:38:18;;;;;;;20.13;14.25;;;-1.60;99.90;;;;;;5049894;28;20107;-51
2022/12/12 08:40:44;;;;;;;20.90;13.25;;;-1.30;99.90;;;;;;5049758;28;20112;-53
2022/12/12 08:43:10;;;;;;;17.65;11.25;;;-1.30;99.90;;;;;;5049442;28;20029;-51
2022/12/12 08:45:39;;;;;;;19.40;13.45;;;-1.30;99.90;;;;;;5049619;28;20021;-51
2022/12/12 08:48:06;;;;;;;19.33;12.95;;;-1.30;99.90;;;;;;5049728;28;20017;-54
2022/12/12 08:50:32;;;;;;;20.38;13.10;;;-1.40;99.90;;;;;;5049736;28;20066;-53
2022/12/12 08:52:58;;;;;;;24.98;17.27;;;-1.30;99.90;;;;;;5049647;28;20111;-53
2022/12/12 08:55:24;;;;;;;21.27;14.27;;;-1.30;99.90;;;;;;5049597;28;20140;-54
2022/12/12 08:57:49;;;;;;;22.30;16.55;;;-1.00;99.90;;;;;;5049743;28;20032;-54
2022/12/12 09:00:16;;;;;;;24.08;16.77;;;-0.80;99.90;;;;;;5049387;28;20623;-55
2022/12/12 09:02:42;;;;;;;21.02;14.57;;;-0.50;99.90;;;;;;5049387;28;20112;-54
2022/12/12 09:05:08;;;;;;;20.75;13.60;;;-0.40;99.90;;;;;;5048289;28;20021;-52
2022/12/12 09:07:35;;;;;;;23.13;14.70;;;-0.50;99.90;;;;;;5049466;28;20014;-54
2022/12/12 09:10:01;;;;;;;22.25;14.98;;;-0.20;99.90;;;;;;5049493;28;20487;-49
2022/12/12 09:12:26;;;;;;;37.55;24.00;;;-0.20;99.90;;;;;;5049393;28;20052;-53
2022/12/12 09:14:53;;;;;;;41.05;21.88;;;-0.60;99.90;;;;;;5049522;28;20045;-52
2022/12/12 09:17:19;;;;;;;24.33;15.63;;;-0.80;99.90;;;;;;5049097;28;20433;-52
2022/12/12 09:19:44;;;;;;;19.73;13.30;;;-0.50;99.90;;;;;;5049469;28;20051;-55
2022/12/12 09:22:10;;;;;;;22.20;15.57;;;-0.60;99.90;;;;;;5048878;28;20047;-54
2022/12/12 09:24:36;;;;;;;23.10;15.50;;;-0.90;99.90;;;;;;5047987;28;20021;-48
2022/12/12 09:27:02;;;;;;;24.45;16.30;;;-1.10;99.90;;;;;;5048892;28;20116;-55
2022/12/12 09:29:28;;;;;;;27.63;16.30;;;-1.40;99.90;;;;;;5049471;28;20096;-53
2022/12/12 09:31:54;;;;;;;29.75;17.92;;;-1.60;99.90;;;;;;5049056;28;20542;-53
2022/12/12 09:34:19;;;;;;;25.52;16.25;;;-1.60;99.90;;;;;;5049129;28;20392;-53
2022/12/12 09:36:45;;;;;;;20.98;14.90;;;-0.90;99.90;;;;;;5049193;28;20025;-50
2022/12/12 09:39:10;;;;;;;27.58;16.02;;;-0.20;99.90;;;;;;5047594;28;20025;-50
2022/12/12 09:41:36;;;;;;;24.05;15.02;;;0.20;99.90;;;;;;5048698;28;20029;-51
2022/12/12 09:44:07;;;;;;;24.17;14.57;;;0.70;99.90;;;;;;5047674;28;20025;-51
2022/12/12 09:46:52;;;;;;;22.33;13.23;;;1.90;99.50;;;;;;5049179;28;20021;-53
2022/12/12 09:49:24;;;;;;;22.92;13.77;;;3.00;96.50;;;;;;5048770;28;20017;-50
2022/12/12 09:51:51;;;;;;;17.75;11.55;;;4.20;91.90;;;;;;5048567;28;20025;-54
2022/12/12 09:54:22;;;;;;;32.38;18.05;;;4.20;90.60;;;;;;5048543;28;20039;-52
2022/12/12 09:56:56;;;;;;;43.30;21.25;;;3.90;90.70;;;;;;5048620;28;20069;-51
2022/12/12 09:59:28;;;;;;;20.90;14.32;;;3.40;90.40;;;;;;5048874;28;20025;-51
2022/12/12 10:02:15;;;;;;;19.23;11.88;;;5.10;86.80;;;;;;5048694;28;20411;-50
2022/12/12 10:04:45;;;;;;;16.33;11.00;;;5.80;81.50;;;;;;5048739;28;20108;-53
2022/12/12 10:07:38;;;;;;;25.85;13.25;;;5.80;77.40;;;;;;5048347;28;20470;-52
2022/12/12 10:10:10;;;;;;;17.33;11.32;;;4.00;80.10;;;;;;5048322;28;20021;-51
2022/12/12 10:12:36;;;;;;;23.63;15.15;;;3.20;83.70;;;;;;5048169;28;20056;-53
2022/12/12 10:15:25;;;;;;;29.75;17.58;;;2.40;87.80;;;;;;5048260;28;20021;-51
2022/12/12 10:17:51;;;;;;;39.33;22.30;;;2.00;88.80;;;;;;5038757;28;20047;-54
2022/12/12 10:20:24;;;;;;;13.93;11.05;;;1.70;90.20;;;;;;5048099;28;20037;-50
2022/12/12 10:23:12;;;;;;;42.40;19.30;;;1.40;90.80;;;;;;5048139;28;20101;-51
2022/12/12 10:25:47;;;;;;;17.60;12.88;;;0.80;92.70;;;;;;5048014;28;20050;-49
2022/12/12 10:28:15;;;;;;;13.43;10.40;;;0.80;93.40;;;;;;5047976;28;20069;-48
2022/12/12 10:31:14;;;;;;;18.55;12.05;;;0.70;93.60;;;;;;5048184;28;20028;-51
2022/12/12 10:34:09;;;;;;;14.88;9.85;;;0.70;94.30;;;;;;5027499;28;20033;-53
2022/12/12 10:36:37;;;;;;;16.73;10.77;;;0.20;94.30;;;;;;5048091;28;20021;-52
2022/12/12 10:39:15;;;;;;;25.25;15.02;;;-0.20;96.00;;;;;;5048097;28;20017;-54
2022/12/12 10:42:09;;;;;;;30.05;16.48;;;-0.80;97.80;;;;;;5047997;28;20433;-52
2022/12/12 10:44:37;;;;;;;42.15;22.58;;;-1.00;99.90;;;;;;5048197;28;20033;-53
2022/12/12 10:47:06;;;;;;;17.95;12.05;;;-0.70;99.90;;;;;;5047941;28;20384;-52
2022/12/12 10:49:32;;;;;;;23.33;14.05;;;-0.50;99.70;;;;;;5046562;28;20013;-52
2022/12/12 10:52:03;;;;;;;14.48;10.32;;;-0.70;99.90;;;;;;5047773;28;20479;-52
2022/12/12 10:54:41;;;;;;;32.60;16.90;;;-0.70;99.90;;;;;;5047776;28;20480;-53
2022/12/12 10:57:13;;;;;;;23.75;14.02;;;-0.90;99.90;;;;;;5047530;28;20025;-52
2022/12/12 10:59:44;;;;;;;19.38;13.55;;;-1.00;99.90;;;;;;5048033;28;20033;-52
2022/12/12 11:02:37;;;;;;;17.33;11.80;;;-1.00;99.90;;;;;;5047402;28;20033;-50
2022/12/12 11:05:23;;;;;;;28.83;14.47;;;-0.90;99.90;;;;;;5039938;28;20029;-53
2022/12/12 11:08:03;;;;;;;30.35;14.48;;;-1.00;99.90;;;;;;5047754;28;20021;-48
2022/12/12 11:10:34;;;;;;;15.13;9.68;;;-1.00;99.90;;;;;;5047842;28;20299;-51
2022/12/12 11:13:02;;;;;;;28.42;13.05;;;-1.00;99.90;;;;;;5047064;28;20127;-53
2022/12/12 11:15:42;;;;;;;24.48;15.07;;;-1.10;99.90;;;;;;5047600;28;20477;-49
2022/12/12 11:18:14;;;;;;;11.85;8.60;;;-1.10;99.90;;;;;;5047413;28;20032;-50
2022/12/12 11:20:47;;;;;;;17.50;11.07;;;-1.10;99.90;;;;;;5047548;28;20029;-52
2022/12/12 11:23:19;;;;;;;27.08;14.27;;;-1.20;99.90;;;;;;5047011;28;20025;-49
2022/12/12 11:25:52;;;;;;;18.65;11.40;;;-1.00;99.90;;;;;;5046120;28;20029;-51
2022/12/12 11:28:23;;;;;;;21.95;11.77;;;-0.80;99.90;;;;;;5046798;28;20028;-52
2022/12/12 11:30:51;;;;;;;21.63;13.02;;;-0.80;99.90;;;;;;5047474;28;20021;-52
2022/12/12 11:33:20;;;;;;;13.48;10.25;;;-0.60;99.90;;;;;;5047017;28;20473;-49
2022/12/12 11:35:53;;;;;;;20.92;12.30;;;-0.30;99.70;;;;;;5047479;28;20021;-52
2022/12/12 11:38:40;;;;;;;17.20;10.43;;;0.00;99.50;;;;;;5047114;28;20029;-54
2022/12/12 11:41:09;;;;;;;18.33;10.95;;;0.10;98.40;;;;;;5046920;28;20085;-49
2022/12/12 11:43:50;;;;;;;18.60;11.77;;;0.20;98.30;;;;;;5047048;28;20025;-52
2022/12/12 11:46:19;;;;;;;11.88;8.30;;;0.20;97.90;;;;;;5046583;28;20025;-52
2022/12/12 11:48:50;;;;;;;13.75;9.48;;;0.30;97.60;;;;;;5047535;28;20414;-54
2022/12/12 11:51:44;;;;;;;18.35;12.30;;;0.30;97.20;;;;;;5048095;28;20415;-52
2022/12/12 11:54:31;;;;;;;16.55;11.20;;;0.50;97.70;;;;;;5047974;28;20055;-52
2022/12/12 11:57:18;;;;;;;14.27;9.98;;;0.50;97.40;;;;;;5048032;28;20077;-53
2022/12/12 12:00:05;;;;;;;11.27;9.23;;;0.70;96.40;;;;;;5047853;28;20065;-56
2022/12/12 12:02:49;;;;;;;15.02;9.65;;;1.30;95.10;;;;;;5047716;28;20109;-53
2022/12/12 12:05:33;;;;;;;;;;;1.70;94.50;;;;;;5048196;28;20025;-53
2022/12/12 12:08:20;;;;;;;13.40;8.95;;;1.80;93.30;;;;;;5047948;28;19912;-51
2022/12/12 12:11:00;;;;;;;17.75;9.55;;;0.90;94.00;;;;;;5046622;28;20492;-54
2022/12/12 12:13:55;;;;;;;18.08;10.27;;;0.90;94.70;;;;;;5048082;28;20029;-52
2022/12/12 12:16:50;;;;;;;15.70;11.07;;;0.80;94.20;;;;;;5047948;28;20452;-49
2022/12/12 12:19:27;;;;;;;19.38;12.27;;;1.10;94.20;;;;;;5047863;28;20202;-53
2022/12/12 12:22:00;;;;;;;16.45;10.68;;;1.60;92.80;;;;;;5047744;28;20112;-53
2022/12/12 12:24:26;;;;;;;11.70;9.15;;;1.60;93.30;;;;;;5047780;28;20021;-53
2022/12/12 12:27:11;;;;;;;11.82;7.68;;;2.90;90.90;;;;;;5047957;28;20973;-54
2022/12/12 12:29:48;;;;;;;13.32;9.50;;;3.10;89.60;;;;;;5047656;28;20108;-51
2022/12/12 12:33:11;;;;;;;17.98;9.50;;;3.20;89.30;;;;;;5046397;28;20417;-56
2022/12/12 12:35:54;;;;;;;15.13;8.55;;;3.60;88.80;;;;;;4969584;28;20027;-56
2022/12/12 12:38:48;;;;;;;15.03;8.47;;;4.50;84.60;;;;;;4986322;28;20614;-54
2022/12/12 12:41:24;;;;;;;11.43;8.00;;;4.00;84.20;;;;;;5045195;28;20303;-54
2022/12/12 12:44:21;;;;;;;11.60;7.72;;;3.80;84.50;;;;;;5050984;28;20364;-55
2022/12/12 12:46:51;;;;;;;15.20;10.05;;;3.30;83.50;;;;;;5051067;28;20701;-54
2022/12/12 12:49:52;;;;;;;13.48;9.57;;;2.50;87.00;;;;;;5050940;28;20348;-51
2022/12/12 12:52:28;;;;;;;12.70;9.02;;;3.00;86.50;;;;;;5018451;28;20041;-51
2022/12/12 12:54:56;;;;;;;13.95;9.27;;;2.60;86.00;;;;;;5050884;28;20043;-51
2022/12/12 12:57:33;;;;;;;11.80;8.00;;;1.70;87.60;;;;;;5050927;28;20384;-53
2022/12/12 13:00:18;;;;;;;14.15;9.57;;;2.60;88.20;;;;;;5050691;28;20033;-54
2022/12/12 13:02:54;;;;;;;28.50;13.93;;;3.30;86.10;;;;;;5050011;28;20109;-50
2022/12/12 13:05:35;;;;;;;12.23;8.95;;;4.40;82.10;;;;;;5048326;28;20029;-56
2022/12/12 13:08:28;;;;;;;13.68;9.02;;;4.30;79.50;;;;;;5049853;28;20105;-56